createdAt,value
2018-09-28T00:02:00.913Z,3.30
2018-09-28T00:04:28.418Z,5.57
2018-09-28T00:06:55.950Z,4.07
2018-09-28T00:09:23.476Z,3.23
2018-09-28T00:11:50.981Z,6.33
2018-09-28T00:14:18.519Z,5.33
2018-09-28T00:16:46.062Z,5.50
2018-09-28T00:19:13.599Z,3.33
2018-09-28T00:21:41.135Z,3.27
2018-09-28T00:24:08.666Z,3.70
2018-09-28T00:26:36.177Z,3.80
2018-09-28T00:29:03.696Z,4.63
2018-09-28T00:31:31.234Z,4.37
2018-09-28T00:33:58.779Z,4.80
2018-09-28T00:36:26.315Z,5.23
2018-09-28T00:38:53.841Z,3.93
2018-09-28T00:41:21.388Z,5.13
2018-09-28T00:43:48.905Z,4.93
2018-09-28T00:46:16.406Z,3.30
2018-09-28T00:48:43.910Z,5.03
2018-09-28T00:51:11.406Z,3.93
2018-09-28T00:53:38.916Z,3.27
2018-09-28T00:56:06.941Z,2.80
2018-09-28T00:58:34.479Z,5.33
2018-09-28T01:01:01.978Z,4.30
2018-09-28T01:03:29.493Z,3.47
2018-09-28T01:05:56.988Z,4.20
2018-09-28T01:08:24.489Z,5.10
2018-09-28T01:10:52.074Z,7.27
2018-09-28T01:13:19.590Z,6.57
2018-09-28T01:15:47.093Z,4.07
2018-09-28T01:18:14.613Z,6.13
2018-09-28T01:20:42.109Z,2.87
2018-09-28T01:23:09.613Z,3.73
2018-09-28T01:25:37.122Z,4.87
2018-09-28T01:28:04.683Z,5.60
2018-09-28T01:30:32.190Z,4.33
2018-09-28T01:32:59.693Z,5.13
2018-09-28T01:35:27.194Z,5.57
2018-09-28T01:37:54.695Z,4.60
2018-09-28T01:40:22.243Z,9.23
2018-09-28T01:42:49.800Z,4.67
2018-09-28T01:45:17.307Z,9.10
2018-09-28T01:47:44.827Z,5.57
2018-09-28T01:50:12.353Z,5.90
2018-09-28T01:52:39.863Z,3.60
2018-09-28T01:55:07.394Z,7.00
2018-09-28T01:57:34.919Z,4.50
2018-09-28T02:00:02.473Z,6.73
2018-09-28T02:02:29.973Z,4.43
2018-09-28T02:04:57.485Z,3.77
2018-09-28T02:07:25.018Z,6.20
2018-09-28T02:09:52.546Z,6.97
2018-09-28T02:12:20.131Z,7.03
2018-09-28T02:14:47.637Z,3.83
2018-09-28T02:17:15.174Z,5.90
2018-09-28T02:19:42.837Z,3.47
2018-09-28T02:22:10.375Z,4.20
2018-09-28T02:24:37.907Z,6.00
2018-09-28T02:27:05.760Z,5.17
2018-09-28T02:29:33.277Z,6.47
2018-09-28T02:32:00.807Z,4.77
2018-09-28T02:34:28.377Z,3.97
2018-09-28T02:36:55.911Z,5.33
2018-09-28T02:39:23.437Z,5.47
2018-09-28T02:41:50.966Z,6.47
2018-09-28T02:44:18.484Z,8.20
2018-09-28T02:46:45.990Z,8.50
2018-09-28T02:49:13.511Z,6.53
2018-09-28T02:51:41.013Z,4.83
2018-09-28T02:54:08.531Z,6.37
2018-09-28T02:56:36.043Z,4.67
2018-09-28T02:59:03.561Z,4.13
2018-09-28T03:01:31.091Z,6.63
2018-09-28T03:03:58.606Z,6.83
2018-09-28T03:06:26.132Z,3.33
2018-09-28T03:08:53.622Z,4.33
2018-09-28T03:11:21.125Z,5.00
2018-09-28T03:13:48.630Z,6.60
2018-09-28T03:16:16.142Z,4.53
2018-09-28T03:18:43.642Z,4.43
2018-09-28T03:21:11.163Z,4.70
2018-09-28T03:23:38.665Z,4.73
2018-09-28T03:26:06.180Z,4.87
2018-09-28T03:28:33.687Z,5.33
2018-09-28T03:31:01.185Z,4.67
2018-09-28T03:33:28.693Z,5.97
2018-09-28T03:35:56.206Z,5.67
2018-09-28T03:38:23.718Z,4.73
2018-09-28T03:40:51.220Z,5.37
2018-09-28T03:43:25.459Z,5.57
2018-09-28T03:45:52.969Z,4.37
2018-09-28T03:48:20.469Z,5.23
2018-09-28T03:50:47.981Z,5.43
2018-09-28T03:53:15.468Z,5.13
2018-09-28T03:55:42.973Z,4.87
2018-09-28T03:58:10.453Z,6.60
2018-09-28T04:00:37.975Z,4.30
2018-09-28T04:03:05.527Z,4.90
2018-09-28T04:05:32.982Z,8.17
2018-09-28T04:08:00.478Z,5.80
2018-09-28T04:10:27.989Z,5.87
2018-09-28T04:12:55.499Z,7.13
2018-09-28T04:15:23.005Z,10.23
2018-09-28T04:17:50.510Z,6.27
2018-09-28T04:20:18.021Z,6.30
2018-09-28T04:22:45.535Z,6.13
2018-09-28T04:25:13.069Z,6.30
2018-09-28T04:27:40.566Z,6.43
2018-09-28T04:30:08.107Z,6.47
2018-09-28T04:32:35.605Z,5.63
2018-09-28T04:35:03.131Z,5.07
2018-09-28T04:37:30.636Z,7.00
2018-09-28T04:39:58.147Z,7.10
2018-09-28T04:42:25.661Z,5.40
2018-09-28T04:44:53.193Z,7.30
2018-09-28T04:47:20.727Z,6.17
2018-09-28T04:49:48.267Z,6.03
2018-09-28T04:52:15.799Z,5.40
2018-09-28T04:54:43.307Z,7.00
2018-09-28T04:57:10.817Z,6.73
2018-09-28T04:59:38.329Z,5.97
2018-09-28T05:02:05.857Z,8.67
2018-09-28T05:04:33.389Z,6.40
2018-09-28T05:07:00.935Z,5.70
2018-09-28T05:09:28.452Z,5.50
2018-09-28T05:11:55.968Z,5.13
2018-09-28T05:14:23.495Z,7.43
2018-09-28T05:16:51.034Z,7.37
2018-09-28T05:19:18.568Z,8.50
2018-09-28T05:21:46.107Z,7.03
2018-09-28T05:24:13.626Z,7.23
2018-09-28T05:26:41.166Z,6.57
2018-09-28T05:29:08.695Z,6.37
2018-09-28T05:31:36.281Z,5.87
2018-09-28T05:34:03.746Z,6.70
2018-09-28T05:36:44.529Z,7.73
2018-09-28T05:39:12.095Z,11.07
2018-09-28T05:41:39.622Z,5.70
2018-09-28T05:44:07.402Z,6.90
2018-09-28T05:46:34.913Z,4.70
2018-09-28T05:49:02.419Z,6.07
2018-09-28T05:51:29.990Z,7.97
2018-09-28T05:53:57.477Z,7.50
2018-09-28T05:56:24.989Z,4.87
2018-09-28T05:58:58.219Z,7.03
2018-09-28T06:01:31.591Z,6.57
2018-09-28T06:04:04.813Z,7.83
2018-09-28T06:06:32.351Z,6.27
2018-09-28T06:08:59.854Z,5.97
2018-09-28T06:11:27.381Z,5.27
2018-09-28T06:13:54.889Z,8.40
2018-09-28T06:16:22.401Z,8.77
2018-09-28T06:18:49.934Z,8.30
2018-09-28T06:21:17.448Z,5.67
2018-09-28T06:23:44.969Z,6.60
2018-09-28T06:26:12.465Z,5.10
2018-09-28T06:28:39.956Z,6.37
2018-09-28T06:31:07.586Z,10.03
2018-09-28T06:33:35.096Z,5.93
2018-09-28T06:36:02.685Z,7.57
2018-09-28T06:38:30.127Z,7.80
2018-09-28T06:40:57.662Z,8.87
2018-09-28T06:43:25.195Z,8.93
2018-09-28T06:45:53.213Z,11.00
2018-09-28T06:48:21.151Z,8.50
2018-09-28T06:50:48.617Z,7.67
2018-09-28T06:53:16.144Z,8.40
2018-09-28T06:55:43.679Z,12.70
2018-09-28T06:58:11.238Z,11.27
2018-09-28T07:00:38.733Z,11.87
2018-09-28T07:03:06.258Z,8.70
2018-09-28T07:05:33.777Z,12.50
2018-09-28T07:08:01.286Z,9.60
2018-09-28T07:10:28.819Z,10.80
2018-09-28T07:12:56.342Z,10.87
2018-09-28T07:15:23.865Z,9.17
2018-09-28T07:17:51.438Z,10.30
2018-09-28T07:20:18.951Z,11.67
2018-09-28T07:22:46.614Z,12.13
2018-09-28T07:25:14.215Z,12.77
2018-09-28T07:27:41.695Z,13.43
2018-09-28T07:30:09.270Z,15.30
2018-09-28T07:32:36.779Z,13.10
2018-09-28T07:35:04.330Z,13.95
2018-09-28T07:37:31.852Z,13.62
2018-09-28T07:39:59.376Z,15.18
2018-09-28T07:42:26.910Z,17.25
2018-09-28T07:44:54.421Z,18.60
2018-09-28T07:47:21.944Z,15.95
2018-09-28T07:49:49.466Z,15.95
2018-09-28T07:52:16.981Z,15.60
2018-09-28T07:54:44.481Z,13.58
2018-09-28T07:57:11.993Z,14.35
2018-09-28T07:59:39.599Z,17.35
2018-09-28T08:02:07.677Z,15.83
2018-09-28T08:04:35.190Z,20.43
2018-09-28T08:07:02.714Z,17.67
2018-09-28T08:09:30.217Z,17.23
2018-09-28T08:11:57.747Z,16.12
2018-09-28T08:14:25.250Z,17.17
2018-09-28T08:16:52.762Z,21.50
2018-09-28T08:19:20.275Z,18.98
2018-09-28T08:21:47.798Z,23.18
2018-09-28T08:24:15.290Z,20.12
2018-09-28T08:26:42.836Z,20.75
2018-09-28T08:29:10.338Z,20.15
2018-09-28T08:31:37.892Z,23.00
2018-09-28T08:34:05.554Z,19.12
2018-09-28T08:36:33.158Z,20.88
2018-09-28T08:39:00.627Z,21.93
2018-09-28T08:41:28.149Z,23.30
2018-09-28T08:43:55.676Z,21.00
2018-09-28T08:46:23.178Z,21.68
2018-09-28T08:48:50.692Z,18.32
2018-09-28T08:51:18.215Z,17.50
2018-09-28T08:53:45.737Z,19.15
2018-09-28T08:56:13.233Z,19.80
2018-09-28T08:58:40.736Z,20.95
2018-09-28T09:01:08.326Z,18.40
2018-09-28T09:03:35.809Z,19.87
2018-09-28T09:06:03.345Z,24.92
2018-09-28T09:08:30.860Z,17.90
2018-09-28T09:10:58.381Z,22.77
2018-09-28T09:13:25.869Z,22.93
2018-09-28T09:15:53.382Z,22.02
2018-09-28T09:18:21.284Z,19.67
2018-09-28T09:20:48.727Z,21.60
2018-09-28T09:23:16.342Z,20.92
2018-09-28T09:25:43.848Z,26.23
2018-09-28T09:28:11.366Z,24.82
2018-09-28T09:30:38.861Z,28.65
2018-09-28T09:33:06.386Z,24.02
2018-09-28T09:35:33.881Z,21.57
2018-09-28T09:38:01.390Z,23.62
2018-09-28T09:40:29.049Z,21.07
2018-09-28T09:42:56.574Z,19.85
2018-09-28T09:45:24.102Z,27.20
2018-09-28T09:47:51.642Z,23.73
2018-09-28T09:50:19.178Z,28.60
2018-09-28T09:52:46.710Z,26.23
2018-09-28T09:55:14.265Z,26.23
2018-09-28T09:57:41.829Z,24.80
2018-09-28T10:00:09.364Z,24.57
2018-09-28T10:02:42.786Z,23.35
2018-09-28T10:05:10.315Z,21.30
2018-09-28T10:07:37.857Z,20.75
2018-09-28T10:10:05.385Z,22.85
2018-09-28T10:12:33.098Z,20.70
2018-09-28T10:15:00.442Z,22.95
2018-09-28T10:17:27.955Z,22.15
2018-09-28T10:19:55.482Z,21.75
2018-09-28T10:22:23.020Z,20.55
2018-09-28T10:24:50.559Z,22.30
2018-09-28T10:27:18.081Z,21.30
2018-09-28T10:29:45.614Z,27.00
2018-09-28T10:32:13.141Z,25.30
2018-09-28T10:34:40.739Z,26.47
2018-09-28T10:37:08.235Z,28.60
2018-09-28T10:39:35.825Z,25.17
2018-09-28T10:42:03.305Z,23.90
2018-09-28T10:44:30.831Z,21.37
2018-09-28T10:46:58.359Z,23.83
2018-09-28T10:49:25.965Z,24.60
2018-09-28T10:51:53.546Z,23.50
2018-09-28T10:54:20.977Z,23.30
2018-09-28T10:56:48.491Z,19.83
2018-09-28T10:59:16.036Z,21.30
2018-09-28T11:01:43.555Z,22.07
2018-09-28T11:04:11.114Z,20.50
2018-09-28T11:06:38.654Z,22.83
2018-09-28T11:09:08.624Z,21.63
2018-09-28T11:11:36.094Z,19.03
2018-09-28T11:14:03.627Z,19.67
2018-09-28T11:16:31.133Z,17.70
2018-09-28T11:18:58.734Z,21.37
2018-09-28T11:21:26.296Z,20.43
2018-09-28T11:23:53.788Z,19.03
2018-09-28T11:28:55.823Z,22.70
2018-09-28T11:31:23.361Z,20.63
2018-09-28T11:33:50.977Z,23.90
2018-09-28T11:36:18.422Z,16.83
2018-09-28T11:38:45.934Z,20.00
2018-09-28T11:41:13.437Z,17.23
2018-09-28T11:43:40.963Z,17.67
2018-09-28T11:46:08.481Z,18.27
2018-09-28T11:48:35.991Z,21.33
2018-09-28T11:51:03.506Z,20.50
2018-09-28T11:53:31.021Z,24.60
2018-09-28T11:55:58.529Z,22.63
2018-09-28T11:58:26.032Z,28.63
2018-09-28T12:00:53.525Z,24.83
2018-09-28T12:03:21.044Z,25.67
2018-09-28T12:05:48.566Z,24.77
2018-09-28T12:08:16.078Z,28.13
2018-09-28T12:10:43.594Z,27.13
2018-09-28T12:13:11.090Z,28.17
2018-09-28T12:15:38.603Z,34.97
2018-09-28T12:18:06.117Z,35.20
2018-09-28T12:20:33.651Z,35.33
2018-09-28T12:23:01.142Z,32.40
2018-09-28T12:25:28.661Z,27.73
2018-09-28T12:27:56.171Z,24.83
2018-09-28T12:30:23.772Z,22.50
2018-09-28T12:32:51.234Z,23.70
2018-09-28T12:35:18.751Z,24.07
2018-09-28T12:37:46.250Z,19.90
2018-09-28T12:40:13.790Z,19.12
2018-09-28T12:42:41.320Z,20.40
2018-09-28T12:45:08.898Z,19.07
2018-09-28T12:47:36.373Z,18.05
2018-09-28T12:50:04.136Z,15.63
2018-09-28T12:52:31.642Z,19.00
2018-09-28T12:54:59.174Z,17.23
2018-09-28T12:57:26.701Z,16.02
2018-09-28T12:59:54.236Z,19.92
2018-09-28T13:02:21.890Z,17.23
2018-09-28T13:04:49.316Z,17.98
2018-09-28T13:07:16.853Z,20.35
2018-09-28T13:09:44.372Z,20.52
2018-09-28T13:12:11.907Z,22.90
2018-09-28T13:14:39.454Z,16.80
2018-09-28T13:17:06.981Z,15.53
2018-09-28T13:19:34.571Z,21.50
2018-09-28T13:22:02.098Z,20.02
2018-09-28T13:24:29.688Z,21.48
2018-09-28T13:26:57.367Z,17.85
2018-09-28T13:29:24.899Z,21.00
2018-09-28T13:31:52.430Z,20.10
2018-09-28T13:34:19.958Z,20.40
2018-09-28T13:36:47.537Z,18.00
2018-09-28T13:39:15.064Z,20.15
2018-09-28T13:41:42.581Z,19.00
2018-09-28T13:44:10.129Z,18.82
2018-09-28T13:46:37.668Z,20.88
2018-09-28T13:49:05.193Z,17.07
2018-09-28T13:51:32.706Z,17.73
2018-09-28T13:54:00.231Z,16.23
2018-09-28T13:56:27.794Z,18.57
2018-09-28T13:58:55.290Z,15.15
2018-09-28T14:01:22.827Z,19.98
2018-09-28T14:03:50.549Z,18.15
2018-09-28T14:06:18.122Z,16.40
2018-09-28T14:08:45.597Z,20.25
2018-09-28T14:11:13.335Z,18.55
2018-09-28T14:13:40.841Z,18.90
2018-09-28T14:16:08.562Z,16.25
2018-09-28T14:18:36.030Z,16.07
2018-09-28T14:21:03.562Z,15.83
2018-09-28T14:23:31.135Z,17.48
2018-09-28T14:25:58.655Z,16.70
2018-09-28T14:28:26.228Z,17.00
2018-09-28T14:30:53.727Z,17.25
2018-09-28T14:33:21.217Z,20.52
2018-09-28T14:35:48.722Z,18.95
2018-09-28T14:38:16.287Z,18.57
2018-09-28T14:40:43.809Z,17.98
2018-09-28T14:43:11.293Z,16.55
2018-09-28T14:45:38.820Z,19.35
2018-09-28T14:48:06.413Z,13.62
2018-09-28T14:50:33.952Z,11.38
2018-09-28T14:53:01.485Z,11.73
2018-09-28T14:55:29.030Z,13.55
2018-09-28T14:57:56.525Z,10.23
2018-09-28T15:00:24.186Z,11.78
2018-09-28T15:02:51.639Z,7.92
2018-09-28T15:05:19.104Z,9.28
2018-09-28T15:07:46.696Z,11.05
2018-09-28T15:10:14.183Z,9.50
2018-09-28T15:12:41.709Z,8.23
2018-09-28T15:15:09.271Z,12.30
2018-09-28T15:17:36.937Z,9.93
2018-09-28T15:20:04.739Z,9.68
2018-09-28T15:22:32.272Z,9.63
2018-09-28T15:24:59.811Z,7.67
2018-09-28T15:27:27.329Z,7.40
2018-09-28T15:29:54.838Z,7.80
2018-09-28T15:32:22.372Z,9.13
2018-09-28T15:34:49.893Z,7.60
2018-09-28T15:37:17.451Z,10.63
2018-09-28T15:39:44.979Z,9.93
2018-09-28T15:42:12.517Z,12.50
2018-09-28T15:44:40.044Z,8.33
2018-09-28T15:47:07.573Z,5.97
2018-09-28T15:49:35.089Z,7.47
2018-09-28T15:52:02.618Z,9.77
2018-09-28T15:54:30.154Z,7.10
2018-09-28T15:56:57.677Z,9.70
2018-09-28T15:59:25.197Z,10.50
2018-09-28T16:01:52.922Z,4.67
2018-09-28T16:04:20.582Z,8.50
2018-09-28T16:06:48.119Z,10.03
2018-09-28T16:09:15.626Z,10.50
2018-09-28T16:11:43.143Z,8.03
2018-09-28T16:14:10.664Z,9.60
2018-09-28T16:16:38.292Z,6.40
2018-09-28T16:19:06.191Z,8.50
2018-09-28T16:21:33.721Z,10.50
2018-09-28T16:24:01.237Z,6.57
2018-09-28T16:26:28.755Z,7.57
2018-09-28T16:28:56.270Z,7.90
2018-09-28T16:31:23.793Z,10.80
2018-09-28T16:33:51.398Z,10.57
2018-09-28T16:36:18.929Z,6.47
2018-09-28T16:38:46.472Z,7.70
2018-09-28T16:41:13.989Z,9.93
2018-09-28T16:43:41.506Z,6.83
2018-09-28T16:46:09.058Z,13.43
2018-09-28T16:48:36.575Z,10.07
2018-09-28T16:51:04.090Z,11.87
2018-09-28T16:53:31.585Z,8.23
2018-09-28T16:55:59.094Z,10.20
2018-09-28T16:58:26.609Z,9.77
2018-09-28T17:00:54.109Z,11.23
2018-09-28T17:03:21.623Z,10.50
2018-09-28T17:05:49.123Z,13.30
2018-09-28T17:08:16.639Z,10.53
2018-09-28T17:10:44.162Z,12.63
2018-09-28T17:13:11.660Z,9.77
2018-09-28T17:15:39.169Z,10.40
2018-09-28T17:18:06.857Z,6.90
2018-09-28T17:20:34.357Z,10.40
2018-09-28T17:23:01.870Z,7.53
2018-09-28T17:25:29.369Z,9.40
2018-09-28T17:27:56.869Z,10.87
2018-09-28T17:30:24.449Z,7.83
2018-09-28T17:32:51.953Z,5.60
2018-09-28T17:35:19.463Z,6.70
2018-09-28T17:37:47.076Z,7.70
2018-09-28T17:40:14.614Z,7.97
2018-09-28T17:42:42.122Z,4.80
2018-09-28T17:45:09.638Z,8.13
2018-09-28T17:47:37.133Z,8.17
2018-09-28T17:50:04.676Z,9.83
2018-09-28T17:52:32.220Z,8.53
2018-09-28T17:54:59.731Z,6.90
2018-09-28T17:57:27.241Z,6.20
2018-09-28T17:59:54.757Z,8.17
2018-09-28T18:02:22.294Z,8.77
2018-09-28T18:04:49.789Z,8.33
2018-09-28T18:07:17.287Z,8.07
2018-09-28T18:09:44.786Z,6.17
2018-09-28T18:12:12.361Z,9.87
2018-09-28T18:14:39.857Z,5.20
2018-09-28T18:17:07.349Z,7.17
2018-09-28T18:19:34.857Z,6.47
2018-09-28T18:22:02.497Z,8.17
2018-09-28T18:24:29.987Z,5.50
2018-09-28T18:26:57.506Z,6.13
2018-09-28T18:29:25.038Z,8.70
2018-09-28T18:31:52.534Z,8.43
2018-09-28T18:34:20.030Z,10.27
2018-09-28T18:36:47.548Z,9.57
2018-09-28T18:39:15.055Z,7.70
2018-09-28T18:41:42.577Z,10.27
2018-09-28T18:44:10.093Z,12.03
2018-09-28T18:46:37.601Z,9.37
2018-09-28T18:49:05.121Z,6.50
2018-09-28T18:51:32.633Z,6.80
2018-09-28T18:54:00.142Z,5.93
2018-09-28T18:56:27.654Z,5.47
2018-09-28T18:58:55.247Z,8.33
2018-09-28T19:01:22.675Z,6.87
2018-09-28T19:03:50.173Z,7.23
2018-09-28T19:06:17.766Z,11.50
2018-09-28T19:08:45.198Z,9.87
2018-09-28T19:11:12.726Z,6.07
2018-09-28T19:13:40.272Z,6.73
2018-09-28T19:16:07.769Z,9.83
2018-09-28T19:18:35.273Z,12.40
2018-09-28T19:21:02.803Z,8.13
2018-09-28T19:23:30.333Z,8.93
2018-09-28T19:25:58.031Z,9.27
2018-09-28T19:28:25.593Z,9.00
2018-09-28T19:30:53.203Z,8.50
2018-09-28T19:33:20.652Z,11.50
2018-09-28T19:35:48.173Z,15.87
2018-09-28T19:38:15.682Z,10.20
2018-09-28T19:40:43.226Z,14.93
2018-09-28T19:43:10.758Z,11.27
2018-09-28T19:45:38.290Z,12.33
2018-09-28T19:48:05.856Z,13.47
2018-09-28T19:50:33.381Z,13.50
2018-09-28T19:53:01.090Z,10.17
2018-09-28T19:55:28.647Z,14.57
2018-09-28T19:58:06.064Z,12.57
2018-09-28T20:00:33.593Z,10.87
2018-09-28T20:03:01.117Z,9.67
2018-09-28T20:05:28.647Z,9.07
2018-09-28T20:07:56.178Z,7.57
2018-09-28T20:10:23.707Z,7.63
2018-09-28T20:12:51.247Z,10.40
2018-09-28T20:15:18.768Z,8.53
2018-09-28T20:17:46.281Z,8.67
2018-09-28T20:20:13.810Z,11.13
2018-09-28T20:22:41.329Z,11.93
2018-09-28T20:25:08.867Z,8.57
2018-09-28T20:27:36.389Z,9.67
2018-09-28T20:30:03.925Z,8.90
2018-09-28T20:32:31.466Z,6.77
2018-09-28T20:34:58.995Z,13.00
2018-09-28T20:37:26.534Z,10.43
2018-09-28T20:39:54.074Z,8.53
2018-09-28T20:42:21.573Z,10.63
2018-09-28T20:44:49.073Z,14.80
2018-09-28T20:47:16.569Z,10.43
2018-09-28T20:49:44.079Z,8.13
2018-09-28T20:52:11.589Z,10.60
2018-09-28T20:54:39.109Z,9.10
2018-09-28T20:57:06.626Z,11.90
2018-09-28T20:59:34.125Z,11.30
2018-09-28T21:02:01.612Z,8.10
2018-09-28T21:04:29.110Z,14.63
2018-09-28T21:06:56.622Z,6.73
2018-09-28T21:09:24.130Z,7.00
2018-09-28T21:11:51.635Z,6.20
2018-09-28T21:14:19.179Z,9.03
2018-09-28T21:16:46.705Z,5.37
2018-09-28T21:19:14.209Z,6.63
2018-09-28T21:21:41.737Z,11.07
2018-09-28T21:24:09.229Z,8.27
2018-09-28T21:26:36.853Z,4.60
2018-09-28T21:29:04.830Z,6.40
2018-09-28T21:31:32.271Z,7.77
2018-09-28T21:33:59.807Z,12.17
2018-09-28T21:36:27.341Z,8.87
2018-09-28T21:38:54.978Z,13.43
2018-09-28T21:41:22.513Z,4.53
2018-09-28T21:43:50.041Z,10.97
2018-09-28T21:46:17.567Z,9.97
2018-09-28T21:48:45.102Z,9.03
2018-09-28T21:51:12.633Z,8.17
2018-09-28T21:53:40.155Z,7.57
2018-09-28T21:56:07.719Z,11.10
2018-09-28T21:58:35.246Z,5.97
2018-09-28T22:01:02.778Z,8.00
2018-09-28T22:03:30.320Z,6.57
2018-09-28T22:05:57.835Z,7.13
2018-09-28T22:08:25.373Z,7.47
2018-09-28T22:10:52.889Z,7.57
2018-09-28T22:13:20.437Z,8.67
2018-09-28T22:15:47.965Z,8.27
2018-09-28T22:18:15.503Z,7.53
2018-09-28T22:20:43.046Z,9.93
2018-09-28T22:23:10.589Z,8.50
2018-09-28T22:25:38.120Z,11.70
2018-09-28T22:28:05.663Z,9.13
2018-09-28T22:30:33.201Z,11.13
2018-09-28T22:33:00.735Z,10.90
2018-09-28T22:35:28.258Z,5.93
2018-09-28T22:37:55.789Z,8.03
2018-09-28T22:40:23.342Z,11.83
2018-09-28T22:42:51.620Z,7.57
2018-09-28T22:45:19.148Z,10.07
2018-09-28T22:47:46.666Z,11.67
2018-09-28T22:50:14.206Z,8.17
2018-09-28T22:52:41.717Z,8.37
2018-09-28T22:55:09.248Z,9.47
2018-09-28T22:57:42.594Z,10.80
2018-09-28T23:00:10.144Z,8.93
2018-09-28T23:02:37.661Z,8.77
2018-09-28T23:05:05.201Z,10.30
2018-09-28T23:07:32.734Z,12.23
2018-09-28T23:10:00.245Z,10.83
2018-09-28T23:12:27.759Z,11.17
2018-09-28T23:14:55.298Z,9.17
2018-09-28T23:17:22.813Z,8.83
2018-09-28T23:19:50.333Z,9.10
2018-09-28T23:22:17.871Z,9.27
2018-09-28T23:24:45.405Z,8.00
2018-09-28T23:27:12.925Z,8.57
2018-09-28T23:29:40.459Z,7.17
2018-09-28T23:32:08.155Z,9.13
2018-09-28T23:34:35.698Z,13.63
2018-09-28T23:37:03.222Z,7.80
2018-09-28T23:39:30.740Z,8.93
2018-09-28T23:41:58.282Z,10.97
2018-09-28T23:44:25.794Z,12.70
2018-09-28T23:46:53.326Z,10.10
2018-09-28T23:49:20.847Z,6.50
2018-09-28T23:51:48.785Z,6.50
2018-09-28T23:54:16.323Z,7.83
2018-09-28T23:56:43.857Z,12.40
2018-09-28T23:59:11.408Z,7.27
